Time;durP1;ratioP1;P1;durP2;ratioP2;P2;SDS_P1;SDS_P2;PMS_P1;PMS_P2;Temp;Humidity;BMP_temperature;BMP_pressure;BME280_temperature;BME280_humidity;BME280_pressure;Samples;Min_cycle;Max_cycle;Signal;HPM_P1;HPM_P2
2023/06/21 00:01:32;;;;;;;5.10;3.20;;;19.80;99.90;;;;;;5027113;28;20037;-81
2023/06/21 00:03:59;;;;;;;4.90;3.22;;;19.90;99.90;;;;;;5026502;28;20033;-81
2023/06/21 00:06:25;;;;;;;5.18;3.53;;;19.90;99.90;;;;;;5025810;28;20097;-81
2023/06/21 00:08:51;;;;;;;6.18;3.60;;;19.90;99.90;;;;;;5061836;22;20132;-79
2023/06/21 00:11:18;;;;;;;4.18;3.20;;;19.80;99.90;;;;;;5047813;28;20119;-79
2023/06/21 00:13:43;;;;;;;6.32;3.20;;;19.80;99.90;;;;;;5047352;28;20056;-79
2023/06/21 00:16:09;;;;;;;5.57;3.65;;;19.80;99.90;;;;;;5048244;28;20508;-79
2023/06/21 00:18:35;;;;;;;6.78;4.13;;;19.90;99.90;;;;;;5048949;28;20028;-80
2023/06/21 00:21:01;;;;;;;6.10;3.63;;;19.80;99.90;;;;;;5008928;28;20065;-79
2023/06/21 00:23:27;;;;;;;7.18;3.80;;;19.70;99.90;;;;;;5027686;28;20033;-79
2023/06/21 00:25:54;;;;;;;7.15;4.28;;;19.80;99.90;;;;;;5009171;28;20039;-79
2023/06/21 00:28:20;;;;;;;4.18;3.78;;;19.80;99.90;;;;;;5040547;28;20037;-79
2023/06/21 00:30:46;;;;;;;5.47;3.45;;;19.70;99.90;;;;;;5025323;28;20071;-79
2023/06/21 00:33:12;;;;;;;7.35;3.58;;;19.60;99.90;;;;;;5001099;28;20065;-79
2023/06/21 00:35:39;;;;;;;5.05;3.78;;;19.60;99.90;;;;;;5011933;28;20044;-80
2023/06/21 00:38:05;;;;;;;5.63;3.65;;;19.60;99.90;;;;;;5028346;28;20448;-79
2023/06/21 00:40:31;;;;;;;5.35;3.53;;;19.60;99.90;;;;;;5023143;28;20722;-79
2023/06/21 00:42:58;;;;;;;5.65;3.38;;;19.60;99.90;;;;;;5003597;28;20335;-80
2023/06/21 00:45:24;;;;;;;4.47;3.05;;;19.60;99.90;;;;;;5024642;28;20037;-79
2023/06/21 00:47:52;;;;;;;4.78;3.38;;;19.60;99.90;;;;;;5009222;28;20490;-79
2023/06/21 00:50:17;;;;;;;4.38;3.03;;;19.60;99.90;;;;;;5027236;28;20050;-80
2023/06/21 00:52:43;;;;;;;4.60;3.75;;;19.60;99.90;;;;;;5020643;28;20449;-80
2023/06/21 00:55:12;;;;;;;7.28;3.05;;;19.60;99.90;;;;;;5000205;28;20058;-79
2023/06/21 00:57:38;;;;;;;4.40;3.28;;;19.60;99.90;;;;;;5026078;28;20104;-78
2023/06/21 01:00:06;;;;;;;3.53;2.90;;;19.50;99.90;;;;;;5024593;28;20342;-79
2023/06/21 01:02:34;;;;;;;4.15;2.90;;;19.50;99.90;;;;;;5011355;28;20381;-79
2023/06/21 01:05:02;;;;;;;5.72;3.05;;;19.50;99.90;;;;;;5000349;28;20045;-80
2023/06/21 01:07:47;;;;;;;3.75;2.85;;;19.50;99.90;;;;;;5006576;28;20033;-79
2023/06/21 01:10:35;;;;;;;5.25;3.67;;;19.50;99.90;;;;;;5027386;28;20524;-79
2023/06/21 01:13:38;;;;;;;6.22;3.13;;;19.40;99.90;;;;;;5016474;28;20537;-79
2023/06/21 01:16:15;;;;;;;5.05;3.10;;;19.40;99.90;;;;;;4992648;28;20588;-79
2023/06/21 01:18:45;;;;;;;4.22;3.13;;;19.40;99.90;;;;;;4994868;28;20118;-79
2023/06/21 01:21:18;;;;;;;3.65;3.00;;;19.30;99.90;;;;;;4997155;28;20084;-79
2023/06/21 01:24:09;;;;;;;4.78;3.03;;;19.30;99.90;;;;;;5009359;28;20030;-81
2023/06/21 01:26:38;;;;;;;5.50;3.20;;;19.20;99.90;;;;;;5011369;28;20516;-79
2023/06/21 01:29:21;;;;;;;4.28;2.78;;;19.20;99.90;;;;;;5013837;28;20040;-79
2023/06/21 01:31:50;;;;;;;4.38;2.80;;;19.20;99.90;;;;;;5003076;28;20104;-79
2023/06/21 01:34:17;;;;;;;3.97;2.90;;;19.10;99.90;;;;;;4996725;28;20045;-80
2023/06/21 01:36:43;;;;;;;4.43;2.83;;;19.10;99.90;;;;;;5014334;28;20182;-79
2023/06/21 01:39:09;;;;;;;4.05;2.70;;;19.10;99.90;;;;;;5020839;28;20037;-79
2023/06/21 01:41:37;;;;;;;4.53;3.10;;;19.10;99.90;;;;;;5008469;28;20022;-79
2023/06/21 01:44:04;;;;;;;3.67;2.65;;;19.10;99.90;;;;;;5010986;28;20124;-79
2023/06/21 01:46:29;;;;;;;3.00;2.13;;;19.10;99.90;;;;;;5029340;28;20041;-80
2023/06/21 01:48:56;;;;;;;6.55;2.30;;;19.10;99.90;;;;;;5014358;28;20088;-80
2023/06/21 01:51:23;;;;;;;2.72;2.00;;;19.10;99.90;;;;;;5026419;28;20032;-80
2023/06/21 01:53:50;;;;;;;3.08;2.45;;;19.10;99.90;;;;;;5015920;28;20057;-79
2023/06/21 01:56:18;;;;;;;4.68;2.17;;;19.10;99.90;;;;;;5027790;28;20092;-79
2023/06/21 01:58:46;;;;;;;3.58;1.98;;;19.00;99.90;;;;;;5016735;28;20026;-79
2023/06/21 02:01:13;;;;;;;2.33;2.00;;;19.00;99.90;;;;;;5017215;28;20029;-79
2023/06/21 02:03:48;;;;;;;2.45;1.98;;;18.90;99.90;;;;;;5032019;28;20075;-80
2023/06/21 02:06:15;;;;;;;4.18;1.95;;;18.90;99.90;;;;;;5021381;28;20109;-80
2023/06/21 02:08:41;;;;;;;6.35;3.20;;;18.90;99.90;;;;;;5030756;28;20033;-80
2023/06/21 02:11:08;;;;;;;4.05;2.13;;;18.90;99.90;;;;;;5004827;28;20072;-79
2023/06/21 02:13:36;;;;;;;5.57;1.92;;;18.80;99.90;;;;;;5001814;28;20030;-79
2023/06/21 02:16:02;;;;;;;3.75;2.10;;;18.80;99.90;;;;;;5018684;28;20436;-80
2023/06/21 02:18:28;;;;;;;3.22;1.98;;;18.70;99.90;;;;;;5016828;28;20517;-80
2023/06/21 02:20:54;;;;;;;3.38;1.80;;;18.70;99.90;;;;;;4991498;28;20394;-81
2023/06/21 02:23:20;;;;;;;5.43;2.63;;;18.70;99.90;;;;;;5031269;28;20051;-79
2023/06/21 02:25:46;;;;;;;5.13;2.05;;;18.70;99.90;;;;;;5028253;28;20040;-79
2023/06/21 02:28:12;;;;;;;3.40;1.83;;;18.60;99.90;;;;;;5025406;28;20037;-79
2023/06/21 02:30:37;;;;;;;5.20;2.22;;;18.70;99.90;;;;;;5015903;28;20400;-81
2023/06/21 02:33:03;;;;;;;2.80;2.38;;;18.70;99.90;;;;;;5025205;28;20068;-80
2023/06/21 02:35:29;;;;;;;4.13;2.42;;;18.70;99.90;;;;;;5025304;28;20123;-80
2023/06/21 02:37:55;;;;;;;4.13;2.00;;;18.60;99.90;;;;;;5029597;28;20500;-79
2023/06/21 02:40:21;;;;;;;2.35;1.80;;;18.60;99.90;;;;;;5016410;28;20037;-80
2023/06/21 02:42:47;;;;;;;2.38;1.85;;;18.50;99.90;;;;;;5017539;28;20030;-80
2023/06/21 02:45:13;;;;;;;2.28;2.08;;;18.50;99.90;;;;;;5016688;28;20060;-79
2023/06/21 02:47:39;;;;;;;3.80;1.90;;;18.50;99.90;;;;;;5025427;28;20525;-80
2023/06/21 02:50:07;;;;;;;3.88;2.22;;;18.40;99.90;;;;;;5000689;28;20033;-79
2023/06/21 02:52:34;;;;;;;5.00;2.08;;;18.30;99.90;;;;;;5021930;28;20512;-79
2023/06/21 02:55:02;;;;;;;5.80;2.47;;;18.30;99.90;;;;;;4999222;28;20121;-80
2023/06/21 02:57:28;;;;;;;3.45;2.10;;;18.20;99.90;;;;;;5005430;28;20041;-80
2023/06/21 02:59:54;;;;;;;2.42;2.08;;;18.20;99.90;;;;;;4979186;28;20029;-80
2023/06/21 03:02:21;;;;;;;5.78;2.33;;;18.20;99.90;;;;;;5011375;28;20535;-79
2023/06/21 03:04:47;;;;;;;3.05;2.30;;;18.10;99.90;;;;;;5004772;28;20050;-80
2023/06/21 03:07:13;;;;;;;6.38;2.42;;;18.10;99.90;;;;;;5022899;28;20029;-79
2023/06/21 03:09:39;;;;;;;3.13;2.28;;;18.10;99.90;;;;;;5020804;28;20409;-80
2023/06/21 03:12:08;;;;;;;2.80;2.15;;;18.00;99.90;;;;;;5016913;28;20025;-79
2023/06/21 03:14:37;;;;;;;4.13;2.20;;;18.00;99.90;;;;;;5006845;28;20033;-80
2023/06/21 03:17:09;;;;;;;3.90;2.08;;;18.00;99.90;;;;;;5001538;28;20439;-79
2023/06/21 03:19:35;;;;;;;3.75;2.58;;;18.00;99.90;;;;;;4998696;28;20117;-79
2023/06/21 03:22:02;;;;;;;5.20;2.33;;;18.00;99.90;;;;;;5012270;28;20112;-79
2023/06/21 03:24:32;;;;;;;4.28;2.50;;;18.10;99.90;;;;;;5011299;28;20036;-79
2023/06/21 03:27:00;;;;;;;2.75;2.10;;;18.00;99.90;;;;;;4992721;28;20113;-81
2023/06/21 03:29:25;;;;;;;3.08;2.65;;;18.10;99.90;;;;;;4999273;28;20428;-79
2023/06/21 03:31:52;;;;;;;6.22;2.47;;;18.00;99.90;;;;;;5009270;28;20041;-79
2023/06/21 03:34:20;;;;;;;6.47;2.50;;;18.00;99.90;;;;;;4982771;28;20045;-80
2023/06/21 03:36:46;;;;;;;4.53;2.38;;;18.00;99.90;;;;;;4981856;28;20032;-79
2023/06/21 03:39:12;;;;;;;5.90;2.80;;;18.00;99.90;;;;;;5008071;28;20421;-78
2023/06/21 03:41:38;;;;;;;3.33;2.08;;;18.00;99.90;;;;;;5002304;28;20041;-79
2023/06/21 03:44:04;;;;;;;3.35;2.50;;;18.00;99.90;;;;;;5018070;28;20034;-79
2023/06/21 03:46:30;;;;;;;3.25;2.25;;;18.00;99.90;;;;;;4988629;28;20096;-79
2023/06/21 03:48:58;;;;;;;5.80;2.33;;;18.00;99.90;;;;;;5002012;28;20041;-80
2023/06/21 03:51:25;;;;;;;5.60;2.70;;;18.10;99.90;;;;;;4995561;28;20038;-79
2023/06/21 03:53:53;;;;;;;4.22;2.60;;;18.10;99.90;;;;;;5012995;28;20060;-80
2023/06/21 03:56:19;;;;;;;5.68;2.40;;;18.10;99.90;;;;;;5013921;28;20505;-80
2023/06/21 03:58:45;;;;;;;4.55;2.70;;;18.00;99.90;;;;;;5007695;28;20033;-79
2023/06/21 04:01:11;;;;;;;7.20;2.95;;;18.00;99.90;;;;;;5011998;28;20033;-79
2023/06/21 04:03:37;;;;;;;5.55;3.30;;;18.00;99.90;;;;;;4994609;28;20720;-79
2023/06/21 04:06:03;;;;;;;3.95;2.55;;;18.00;99.90;;;;;;5000818;28;20030;-80
2023/06/21 04:08:30;;;;;;;3.08;2.28;;;18.00;99.90;;;;;;5007835;28;20641;-80
2023/06/21 04:10:57;;;;;;;4.45;2.80;;;18.10;99.90;;;;;;5011106;28;20468;-79
2023/06/21 04:13:23;;;;;;;5.30;2.45;;;18.10;99.90;;;;;;4995226;28;20111;-80
2023/06/21 04:15:49;;;;;;;3.90;2.85;;;18.20;99.90;;;;;;4981541;28;20018;-80
2023/06/21 04:18:15;;;;;;;6.65;2.80;;;18.20;99.90;;;;;;5005854;28;20518;-80
2023/06/21 04:20:59;;;;;;;3.63;2.50;;;18.30;99.90;;;;;;5021045;28;20059;-79
2023/06/21 04:23:28;;;;;;;6.43;2.75;;;18.30;99.90;;;;;;4998948;28;20038;-80
2023/06/21 04:25:54;;;;;;;5.07;2.72;;;18.30;99.90;;;;;;5017638;28;20029;-80
2023/06/21 04:28:24;;;;;;;3.80;3.08;;;18.40;99.90;;;;;;4993194;28;20037;-79
2023/06/21 04:30:51;;;;;;;5.68;3.20;;;18.50;99.90;;;;;;5014902;28;20117;-80
2023/06/21 04:33:18;;;;;;;9.10;3.20;;;18.60;99.90;;;;;;5015356;28;20029;-80
2023/06/21 04:35:43;;;;;;;4.40;3.13;;;18.60;99.90;;;;;;5023982;28;20045;-80
2023/06/21 04:38:09;;;;;;;8.70;3.35;;;18.60;99.90;;;;;;4997564;28;20056;-80
2023/06/21 04:40:35;;;;;;;4.75;2.90;;;18.60;99.90;;;;;;5014452;28;20038;-81
2023/06/21 04:43:03;;;;;;;7.55;3.40;;;18.70;99.90;;;;;;4994475;28;20200;-79
2023/06/21 04:45:31;;;;;;;4.28;3.50;;;18.80;99.90;;;;;;5007956;28;20037;-81
2023/06/21 04:47:57;;;;;;;4.35;3.10;;;18.80;99.90;;;;;;5015871;28;20098;-80
2023/06/21 04:50:24;;;;;;;3.72;2.63;;;19.00;99.90;;;;;;5025056;28;20580;-80
2023/06/21 04:52:50;;;;;;;3.83;3.05;;;19.00;99.90;;;;;;5029523;28;20033;-79
2023/06/21 04:55:17;;;;;;;6.40;2.80;;;19.10;99.90;;;;;;5006220;28;20532;-80
2023/06/21 04:57:45;;;;;;;4.43;3.30;;;19.10;99.90;;;;;;4988043;28;20608;-80
2023/06/21 05:00:11;;;;;;;3.88;2.97;;;19.10;99.90;;;;;;5023668;28;20033;-80
2023/06/21 05:02:37;;;;;;;5.72;2.63;;;19.20;99.90;;;;;;5003383;28;20025;-80
2023/06/21 05:05:03;;;;;;;2.80;2.30;;;19.30;99.90;;;;;;5022733;28;20371;-80
2023/06/21 05:07:29;;;;;;;7.32;3.53;;;19.40;99.90;;;;;;5014600;28;20098;-81
2023/06/21 05:09:55;;;;;;;4.72;3.60;;;19.50;99.90;;;;;;5027980;28;20037;-80
2023/06/21 05:12:21;;;;;;;4.35;2.83;;;19.60;99.90;;;;;;5021165;28;20111;-80
2023/06/21 05:14:46;;;;;;;2.70;2.50;;;19.80;99.90;;;;;;5011638;28;20041;-80
2023/06/21 05:17:15;;;;;;;4.93;1.98;;;19.90;99.90;;;;;;5022638;28;20082;-82
2023/06/21 05:19:45;;;;;;;2.90;2.53;;;20.00;99.90;;;;;;5028094;28;20037;-82
2023/06/21 05:22:10;;;;;;;3.42;2.47;;;20.20;99.90;;;;;;5009924;28;20108;-83
2023/06/21 05:24:37;;;;;;;2.90;2.00;;;20.30;99.90;;;;;;5027507;28;20174;-83
2023/06/21 05:27:04;;;;;;;2.35;2.15;;;20.40;99.90;;;;;;5019522;28;20041;-83
2023/06/21 05:29:29;;;;;;;3.58;2.40;;;20.60;99.90;;;;;;4995747;28;20522;-83
2023/06/21 05:31:55;;;;;;;4.15;2.50;;;20.90;99.90;;;;;;5024340;28;20034;-83
2023/06/21 05:34:21;;;;;;;4.30;2.40;;;21.20;99.90;;;;;;4999217;28;20045;-82
2023/06/21 05:36:46;;;;;;;5.28;2.70;;;21.60;99.90;;;;;;5027478;28;20044;-82
2023/06/21 05:39:13;;;;;;;3.60;2.38;;;22.00;99.90;;;;;;5002221;28;20030;-79
2023/06/21 05:41:38;;;;;;;5.97;2.15;;;22.50;99.90;;;;;;5007053;28;20029;-80
2023/06/21 05:44:04;;;;;;;2.80;2.33;;;22.90;99.90;;;;;;5008540;28;20088;-79
2023/06/21 05:46:30;;;;;;;7.55;2.60;;;23.30;99.90;;;;;;5024050;28;20654;-81
2023/06/21 05:48:56;;;;;;;4.85;2.38;;;23.60;99.90;;;;;;5033073;28;20025;-81
2023/06/21 05:51:22;;;;;;;3.25;2.20;;;23.90;99.90;;;;;;5026878;28;20021;-80
2023/06/21 05:53:48;;;;;;;4.90;2.30;;;24.20;99.90;;;;;;5025862;28;20129;-80
2023/06/21 05:56:13;;;;;;;3.63;2.17;;;24.50;99.90;;;;;;5024531;28;20041;-80
2023/06/21 05:58:39;;;;;;;3.95;2.35;;;24.60;99.90;;;;;;5008404;28;20113;-80
2023/06/21 06:01:05;;;;;;;6.07;2.30;;;24.70;99.90;;;;;;5024962;28;20030;-80
2023/06/21 06:03:30;;;;;;;2.50;2.20;;;24.60;99.90;;;;;;5018273;28;20192;-80
2023/06/21 06:05:56;;;;;;;4.38;2.45;;;24.70;99.90;;;;;;5006478;28;20500;-80
2023/06/21 06:08:22;;;;;;;3.17;2.10;;;25.00;99.90;;;;;;5042684;22;20037;-80
2023/06/21 06:10:48;;;;;;;4.68;2.53;;;25.20;99.90;;;;;;5034921;28;20064;-79
2023/06/21 06:13:14;;;;;;;6.15;2.30;;;25.30;99.90;;;;;;5035154;28;20103;-78
2023/06/21 06:15:40;;;;;;;3.83;2.58;;;25.40;99.90;;;;;;5039647;28;20021;-81
2023/06/21 06:18:06;;;;;;;5.65;2.50;;;25.60;99.90;;;;;;5038572;28;20022;-79
2023/06/21 06:20:32;;;;;;;3.15;2.60;;;26.10;99.90;;;;;;5027919;28;20079;-79
2023/06/21 06:22:57;;;;;;;4.45;3.22;;;26.50;99.90;;;;;;5016751;28;20061;-79
2023/06/21 06:25:23;;;;;;;4.57;2.70;;;26.70;99.90;;;;;;5018683;28;20059;-79
2023/06/21 06:27:49;;;;;;;4.68;2.95;;;26.70;99.90;;;;;;5027842;28;20048;-79
2023/06/21 06:30:15;;;;;;;6.72;2.95;;;26.50;99.90;;;;;;5024496;28;20049;-80
2023/06/21 06:32:40;;;;;;;4.75;2.75;;;26.20;99.90;;;;;;5020691;28;20029;-79
2023/06/21 06:35:06;;;;;;;6.70;3.80;;;25.90;99.90;;;;;;5021066;28;20036;-79
2023/06/21 06:37:32;;;;;;;3.92;3.53;;;25.50;99.90;;;;;;5027594;28;20078;-77
2023/06/21 06:39:58;;;;;;;4.90;3.67;;;25.20;99.90;;;;;;5028535;28;20108;-79
2023/06/21 06:42:24;;;;;;;7.13;3.65;;;25.10;99.90;;;;;;5022907;28;20034;-80
2023/06/21 06:44:51;;;;;;;8.27;3.90;;;25.30;99.90;;;;;;5026782;28;20044;-79
2023/06/21 06:47:17;;;;;;;4.72;4.20;;;25.50;99.90;;;;;;5021254;28;20178;-79
2023/06/21 06:49:43;;;;;;;7.60;4.38;;;25.60;99.90;;;;;;5028629;28;20119;-80
2023/06/21 06:52:11;;;;;;;4.60;4.15;;;25.60;99.90;;;;;;5019376;28;20500;-80
2023/06/21 06:54:37;;;;;;;5.82;4.53;;;25.40;99.90;;;;;;5028953;28;20203;-79
2023/06/21 06:57:03;;;;;;;5.75;4.53;;;25.00;99.90;;;;;;5027624;28;20083;-81
2023/06/21 06:59:29;;;;;;;8.15;4.55;;;24.80;99.90;;;;;;5028332;28;20071;-79
2023/06/21 07:01:55;;;;;;;6.32;4.65;;;24.50;99.90;;;;;;5029195;28;20048;-79
2023/06/21 07:04:21;;;;;;;5.45;4.57;;;24.30;99.90;;;;;;5029481;28;20038;-81
2023/06/21 07:06:47;;;;;;;6.70;4.90;;;24.10;99.90;;;;;;5023250;28;20038;-79
2023/06/21 07:09:12;;;;;;;6.57;5.00;;;23.80;99.90;;;;;;5020797;28;20052;-79
2023/06/21 07:11:38;;;;;;;6.40;5.10;;;23.60;99.90;;;;;;5020614;28;20061;-80
2023/06/21 07:14:04;;;;;;;7.82;5.40;;;23.50;99.90;;;;;;5022001;28;20041;-80
2023/06/21 07:16:34;;;;;;;7.07;4.50;;;23.30;99.90;;;;;;5025220;28;20077;-79
2023/06/21 07:18:59;;;;;;;8.25;5.78;;;23.10;99.90;;;;;;5022889;28;20100;-78
2023/06/21 07:21:27;;;;;;;8.50;5.10;;;23.10;99.90;;;;;;5024874;28;20459;-79
2023/06/21 07:23:53;;;;;;;5.97;4.43;;;23.10;99.90;;;;;;5019470;28;20060;-79
2023/06/21 07:26:19;;;;;;;9.20;5.03;;;23.10;99.90;;;;;;5026567;28;20041;-79
2023/06/21 07:28:44;;;;;;;8.77;4.93;;;23.10;99.90;;;;;;5019393;28;20088;-78
2023/06/21 07:31:10;;;;;;;7.30;5.70;;;23.20;99.90;;;;;;5017545;28;20445;-80
2023/06/21 07:33:37;;;;;;;8.10;5.40;;;23.30;99.90;;;;;;5021221;28;20038;-79
2023/06/21 07:36:03;;;;;;;10.52;5.55;;;23.50;99.90;;;;;;5026519;28;20049;-79
2023/06/21 07:38:28;;;;;;;13.75;10.55;;;23.50;99.90;;;;;;5017447;28;20048;-80
2023/06/21 07:40:54;;;;;;;6.07;5.45;;;23.60;99.90;;;;;;5015589;28;20120;-78
2023/06/21 07:43:20;;;;;;;8.52;5.95;;;23.70;99.90;;;;;;5026181;28;20528;-79
2023/06/21 07:45:46;;;;;;;9.88;5.68;;;23.80;99.90;;;;;;5029836;28;20034;-79
2023/06/21 07:48:12;;;;;;;7.15;5.10;;;23.80;99.90;;;;;;5029108;28;20045;-79
2023/06/21 07:50:37;;;;;;;7.53;5.78;;;24.30;99.90;;;;;;5047961;28;20029;-78
2023/06/21 07:53:03;;;;;;;6.43;4.97;;;24.80;99.90;;;;;;5015452;28;20034;-79
2023/06/21 07:55:29;;;;;;;12.45;5.90;;;25.30;99.90;;;;;;5026329;28;20048;-79
2023/06/21 07:57:55;;;;;;;7.93;5.50;;;25.60;99.90;;;;;;5017903;28;20021;-79
2023/06/21 08:00:21;;;;;;;8.02;5.75;;;25.90;99.90;;;;;;5030303;28;20095;-78
2023/06/21 08:02:49;;;;;;;7.00;5.40;;;25.90;99.90;;;;;;5028510;28;20029;-78
2023/06/21 08:05:15;;;;;;;8.18;5.80;;;26.00;99.90;;;;;;5024592;28;20548;-81
2023/06/21 08:07:41;;;;;;;7.70;5.07;;;26.30;99.90;;;;;;5021588;28;20112;-81
2023/06/21 08:10:08;;;;;;;6.95;5.05;;;26.60;99.90;;;;;;5024407;28;20088;-81
2023/06/21 08:12:34;;;;;;;6.07;5.20;;;26.80;99.90;;;;;;5022473;28;20052;-80
2023/06/21 08:15:00;;;;;;;6.13;5.10;;;27.00;99.90;;;;;;5028210;28;20029;-81
2023/06/21 08:17:25;;;;;;;9.02;4.97;;;27.10;99.30;;;;;;5024817;28;20037;-79
2023/06/21 08:19:51;;;;;;;9.80;5.25;;;27.40;98.00;;;;;;5029613;28;20022;-79
2023/06/21 08:22:17;;;;;;;12.20;9.57;;;27.60;97.80;;;;;;5022867;28;20041;-78
2023/06/21 08:24:43;;;;;;;7.38;5.55;;;27.60;95.90;;;;;;5018670;28;20029;-78
2023/06/21 08:27:09;;;;;;;6.57;4.28;;;27.50;96.50;;;;;;5022398;28;20127;-78
2023/06/21 08:29:35;;;;;;;8.13;4.30;;;27.30;94.50;;;;;;5025781;28;20168;-78
2023/06/21 08:32:01;;;;;;;5.75;4.35;;;27.20;95.60;;;;;;5022528;28;20106;-79
2023/06/21 08:34:27;;;;;;;5.78;4.10;;;26.80;94.80;;;;;;5014244;28;20379;-78
2023/06/21 08:36:52;;;;;;;10.07;4.28;;;26.80;95.70;;;;;;5020223;28;20045;-78
2023/06/21 08:39:18;;;;;;;7.53;4.28;;;26.90;94.90;;;;;;5016374;28;20584;-78
2023/06/21 08:41:44;;;;;;;7.20;4.80;;;27.10;95.90;;;;;;5017192;28;20056;-78
2023/06/21 08:44:10;;;;;;;6.15;4.78;;;27.10;95.10;;;;;;5020595;28;20033;-79
2023/06/21 08:46:36;;;;;;;8.40;4.18;;;27.10;96.00;;;;;;5022195;28;20045;-78
2023/06/21 08:49:05;;;;;;;6.32;4.55;;;27.40;96.30;;;;;;5023659;28;20034;-80
2023/06/21 08:51:35;;;;;;;7.47;4.45;;;27.90;94.00;;;;;;5016873;28;20072;-78
2023/06/21 08:54:07;;;;;;;10.93;5.07;;;28.40;91.20;;;;;;5020381;28;20037;-79
2023/06/21 08:56:55;;;;;;;7.30;4.45;;;28.70;90.80;;;;;;5026110;28;20062;-78
2023/06/21 08:59:41;;;;;;;8.65;7.70;;;28.80;91.50;;;;;;5038057;28;20660;-79
2023/06/21 09:02:22;;;;;;;5.70;4.10;;;28.70;90.30;;;;;;5020707;28;20037;-78
2023/06/21 09:04:52;;;;;;;6.35;4.55;;;28.70;90.30;;;;;;5018635;28;20080;-78
2023/06/21 09:07:17;;;;;;;6.03;4.50;;;28.30;90.80;;;;;;5017479;28;20045;-78
2023/06/21 09:09:45;;;;;;;8.45;4.68;;;28.10;86.60;;;;;;5018592;28;20044;-79
2023/06/21 09:12:14;;;;;;;6.47;4.15;;;28.00;90.90;;;;;;5021973;28;20516;-77
2023/06/21 09:14:40;;;;;;;6.18;4.10;;;27.80;88.70;;;;;;5014460;28;20026;-79
2023/06/21 09:17:07;;;;;;;9.57;5.32;;;27.80;89.00;;;;;;5014658;28;20056;-78
2023/06/21 09:19:37;;;;;;;7.03;4.57;;;27.90;88.50;;;;;;5032003;28;20047;-77
2023/06/21 09:22:04;;;;;;;5.82;4.05;;;28.00;89.50;;;;;;5024800;28;20059;-78
2023/06/21 09:24:29;;;;;;;9.65;3.72;;;28.00;89.20;;;;;;5015399;28;20029;-78
2023/06/21 09:26:55;;;;;;;6.75;4.03;;;28.00;88.10;;;;;;5013655;28;20034;-77
2023/06/21 09:29:21;;;;;;;5.63;4.15;;;28.10;91.70;;;;;;5019287;28;20497;-78
2023/06/21 09:31:47;;;;;;;8.15;4.38;;;28.10;90.80;;;;;;5012278;28;20042;-78
2023/06/21 09:34:13;;;;;;;7.97;4.55;;;28.20;87.00;;;;;;5014518;28;20064;-78
2023/06/21 09:36:40;;;;;;;8.20;4.20;;;28.20;84.00;;;;;;5020781;28;20033;-76
2023/06/21 09:39:09;;;;;;;6.63;4.97;;;28.10;87.30;;;;;;5021889;28;20698;-77
2023/06/21 09:41:36;;;;;;;8.23;4.32;;;28.00;85.50;;;;;;5018667;28;20047;-78
2023/06/21 09:44:02;;;;;;;10.35;5.93;;;27.70;87.10;;;;;;5021883;28;20187;-78
2023/06/21 09:46:28;;;;;;;9.45;4.40;;;27.70;85.50;;;;;;5019657;28;20460;-78
2023/06/21 09:48:54;;;;;;;7.72;4.70;;;27.70;90.00;;;;;;5014975;28;20168;-77
2023/06/21 09:51:23;;;;;;;7.85;4.43;;;27.80;91.50;;;;;;5016495;28;20314;-79
2023/06/21 09:53:52;;;;;;;6.40;4.18;;;27.90;91.40;;;;;;5016748;28;20053;-78
2023/06/21 09:56:18;;;;;;;7.32;4.70;;;27.90;92.30;;;;;;5025977;28;20699;-78
2023/06/21 09:58:45;;;;;;;6.47;4.50;;;27.90;86.60;;;;;;5015612;28;20112;-79
2023/06/21 10:01:15;;;;;;;7.47;4.65;;;27.90;90.00;;;;;;5031751;28;20025;-79
2023/06/21 10:03:45;;;;;;;6.15;4.35;;;28.00;90.90;;;;;;5022094;28;20033;-78
2023/06/21 10:06:16;;;;;;;8.32;4.70;;;28.00;90.80;;;;;;5029338;28;20033;-78
2023/06/21 10:08:43;;;;;;;6.80;4.82;;;27.90;90.80;;;;;;5031082;28;20048;-78
2023/06/21 10:11:09;;;;;;;8.77;4.40;;;28.00;90.70;;;;;;5025326;28;20064;-79
2023/06/21 10:13:38;;;;;;;6.72;4.55;;;28.00;91.10;;;;;;5015987;28;20029;-78
2023/06/21 10:16:04;;;;;;;7.53;4.95;;;28.00;86.20;;;;;;5022389;28;20029;-79
2023/06/21 10:18:32;;;;;;;7.32;4.95;;;28.00;81.80;;;;;;5020935;28;20080;-79
2023/06/21 10:20:58;;;;;;;7.88;4.50;;;28.10;85.00;;;;;;5020807;28;20037;-79
2023/06/21 10:23:44;;;;;;;6.63;4.40;;;28.40;85.40;;;;;;5019421;28;20104;-79
2023/06/21 10:26:14;;;;;;;5.70;4.93;;;28.50;78.70;;;;;;5025673;28;20385;-78
2023/06/21 10:28:42;;;;;;;6.30;4.38;;;28.40;82.70;;;;;;5018337;28;20026;-79
2023/06/21 10:31:09;;;;;;;4.53;4.13;;;28.40;85.00;;;;;;5018816;28;20137;-79
2023/06/21 10:33:36;;;;;;;8.57;4.57;;;28.30;83.50;;;;;;5025392;28;20111;-77
2023/06/21 10:36:04;;;;;;;9.05;4.47;;;28.40;85.60;;;;;;5032027;28;20414;-79
2023/06/21 10:38:42;;;;;;;8.48;4.97;;;28.60;83.50;;;;;;5025208;28;20037;-79
2023/06/21 10:41:09;;;;;;;6.57;4.75;;;28.70;80.70;;;;;;5023924;28;20593;-79
2023/06/21 10:43:35;;;;;;;5.63;4.70;;;28.90;83.70;;;;;;5015171;28;20045;-77
2023/06/21 10:46:04;;;;;;;10.30;5.60;;;29.10;79.30;;;;;;5011420;28;20243;-78
2023/06/21 10:48:32;;;;;;;7.90;5.50;;;29.10;76.90;;;;;;5010834;28;20049;-78
2023/06/21 10:51:01;;;;;;;7.30;5.20;;;28.90;78.80;;;;;;5016933;28;20065;-78
2023/06/21 10:53:33;;;;;;;6.30;5.32;;;28.90;80.60;;;;;;5020831;28;20018;-78
2023/06/21 10:56:07;;;;;;;9.52;5.55;;;29.00;82.40;;;;;;5021737;28;20079;-78
2023/06/21 10:58:33;;;;;;;8.35;5.53;;;29.00;82.80;;;;;;5024561;28;20442;-78
2023/06/21 11:01:00;;;;;;;8.75;5.90;;;29.20;83.40;;;;;;5020232;28;20034;-78
2023/06/21 11:03:27;;;;;;;7.57;6.05;;;29.30;81.20;;;;;;5021721;28;20045;-79
2023/06/21 11:06:16;;;;;;;8.60;5.65;;;29.30;78.50;;;;;;5032596;28;20065;-78
2023/06/21 11:08:42;;;;;;;8.80;5.82;;;29.40;80.40;;;;;;5019746;28;20033;-78
2023/06/21 11:11:08;;;;;;;6.75;5.65;;;29.50;81.40;;;;;;5019826;28;20065;-78
2023/06/21 11:13:53;;;;;;;7.60;5.77;;;29.50;76.80;;;;;;5020320;28;20069;-79
2023/06/21 11:16:18;;;;;;;6.90;5.50;;;29.40;78.10;;;;;;5021369;28;20034;-78
2023/06/21 11:18:59;;;;;;;5.47;4.97;;;29.20;79.50;;;;;;5018036;28;20029;-79
2023/06/21 11:21:49;;;;;;;9.60;6.05;;;29.10;81.90;;;;;;5019458;28;20175;-79
2023/06/21 11:24:17;;;;;;;6.95;5.57;;;29.20;84.00;;;;;;5013589;28;20025;-79
2023/06/21 11:26:58;;;;;;;6.07;5.40;;;29.10;81.60;;;;;;5012678;28;20061;-79
2023/06/21 11:29:36;;;;;;;7.53;5.53;;;29.10;84.10;;;;;;5018697;28;20044;-77
2023/06/21 11:32:15;;;;;;;8.73;6.10;;;29.00;84.60;;;;;;5017860;28;20022;-78
2023/06/21 11:35:05;;;;;;;7.38;6.55;;;28.90;85.40;;;;;;5016886;28;20372;-78
2023/06/21 11:37:40;;;;;;;6.97;6.18;;;29.00;85.70;;;;;;5016183;28;20335;-79
2023/06/21 11:40:18;;;;;;;7.55;5.85;;;28.90;85.50;;;;;;5022776;28;20055;-78
2023/06/21 11:42:44;;;;;;;7.57;5.93;;;29.00;84.50;;;;;;5013584;28;20033;-78
2023/06/21 11:45:32;;;;;;;6.20;5.60;;;29.20;81.10;;;;;;5016083;28;20029;-78
2023/06/21 11:48:12;;;;;;;6.95;5.45;;;29.20;82.60;;;;;;5017419;28;20034;-79
2023/06/21 11:50:42;;;;;;;7.88;5.63;;;29.10;82.80;;;;;;5026196;28;20144;-78
2023/06/21 11:53:28;;;;;;;6.75;5.82;;;29.10;80.80;;;;;;5022524;28;20604;-79
2023/06/21 11:56:00;;;;;;;9.05;6.38;;;29.00;84.30;;;;;;5013802;28;20033;-78
2023/06/21 11:58:26;;;;;;;6.93;6.00;;;28.90;78.50;;;;;;5021977;28;20041;-78
2023/06/21 12:00:53;;;;;;;8.50;5.90;;;28.60;78.90;;;;;;5019528;28;20445;-78
2023/06/21 12:03:26;;;;;;;7.72;5.78;;;28.50;80.20;;;;;;5016617;28;20096;-78
2023/06/21 12:05:57;;;;;;;9.35;6.10;;;28.20;78.60;;;;;;5030409;28;20057;-77
2023/06/21 12:08:28;;;;;;;9.60;6.30;;;28.20;83.50;;;;;;5016625;28;20457;-78
2023/06/21 12:10:58;;;;;;;6.20;5.60;;;28.10;82.50;;;;;;5015917;28;20283;-79
2023/06/21 12:13:25;;;;;;;6.75;5.93;;;27.90;83.70;;;;;;5017318;28;20120;-78
2023/06/21 12:15:59;;;;;;;7.82;6.60;;;27.70;83.10;;;;;;5015831;28;20033;-79
2023/06/21 12:18:27;;;;;;;6.40;5.70;;;27.60;82.50;;;;;;5057972;22;20052;-80
2023/06/21 12:20:58;;;;;;;9.43;6.13;;;27.70;86.00;;;;;;5047407;28;20403;-80
2023/06/21 12:23:25;;;;;;;9.10;6.53;;;27.90;83.40;;;;;;5041663;28;20126;-79
2023/06/21 12:25:56;;;;;;;8.77;6.40;;;28.10;86.80;;;;;;5043428;28;20499;-82
2023/06/21 12:28:23;;;;;;;8.38;6.50;;;28.40;85.50;;;;;;5034467;28;20029;-81
2023/06/21 12:30:50;;;;;;;9.30;6.80;;;28.60;80.70;;;;;;5024334;28;20029;-79
2023/06/21 12:33:17;;;;;;;7.32;5.55;;;28.60;83.30;;;;;;5025795;28;20551;-80
2023/06/21 12:35:46;;;;;;;7.78;6.45;;;28.60;84.60;;;;;;5027819;28;20028;-81
2023/06/21 12:38:16;;;;;;;9.23;6.35;;;28.60;81.60;;;;;;5025020;28;20029;-81
2023/06/21 12:40:59;;;;;;;8.80;7.03;;;28.60;83.30;;;;;;5024373;28;20049;-81
2023/06/21 12:43:36;;;;;;;6.78;5.88;;;28.40;84.20;;;;;;5025804;28;20397;-80
2023/06/21 12:46:06;;;;;;;8.27;6.68;;;28.30;84.40;;;;;;5019834;28;20062;-82
2023/06/21 12:48:33;;;;;;;8.13;6.50;;;28.20;84.40;;;;;;5021330;28;20064;-81
2023/06/21 12:50:59;;;;;;;7.90;6.30;;;28.10;85.00;;;;;;5018750;28;20104;-80